LKNA

Náměšť Air Base Airport

Náměšť, Czech Republic
METAR LKNA 221600Z 03007KT 9999 FEW026 SCT210 M03/M08 Q1016 NOSIG
Observed Flight Rules
Feb-22 @ 16:00 UTC (38 minutes ago) Visual Flight Rules
Wind Visibility Clouds
30° at 7 knots 10,000+ meters
  • Few at 2,600' AGL
  • Scattered at 21,000' AGL
Temperatures Readings
Current -3°C / 27°F
Dewpoint -8°C / 18°F
Humidity 69%
Altimeter 30" Hg
Pressure 1016 hPa
Elevation 472
METAR LKNA 221600Z 03007KT 9999 FEW026 SCT210 M03/M08 Q1016 NOSIG
Observed Flight Rules
Feb-22 @ 16:00 UTC
(38 minutes ago)
VFR
Wind Visibility
30° at 7 knots 10,000+ meters
Clouds
  • Few at 2,600' AGL
  • Scattered at 21,000' AGL
Temperature Dewpoint
-3°C / 27°F -8°C / 18°F
Humidity Altimeter Pressure
69% 30" Hg 1016 hPa